Time;durP1;ratioP1;P1;durP2;ratioP2;P2;SDS_P1;SDS_P2;PMS_P1;PMS_P2;Temp;Humidity;BMP_temperature;BMP_pressure;BME280_temperature;BME280_humidity;BME280_pressure;Samples;Min_cycle;Max_cycle;Signal;HPM_P1;HPM_P2
2022/05/22 00:02:20;;;;;;;1.95;1.10;;;;;;;17.45;51.83;100312.22;5589270;31;35238;-67
2022/05/22 00:05:24;;;;;;;1.70;1.23;;;;;;;17.41;52.11;100313.69;5588485;31;33310;-66
2022/05/22 00:08:26;;;;;;;1.45;0.90;;;;;;;17.28;52.44;100303.81;5587741;31;32548;-67
2022/05/22 00:11:32;;;;;;;4.25;1.20;;;;;;;17.29;52.69;100302.78;5589091;31;34919;-67
2022/05/22 00:14:35;;;;;;;2.12;1.15;;;;;;;17.28;53.00;100300.34;5589383;31;33887;-68
2022/05/22 00:17:38;;;;;;;2.47;1.27;;;;;;;17.09;54.41;100310.09;5589063;31;33946;-67
2022/05/22 00:20:40;;;;;;;4.07;1.10;;;;;;;17.15;53.80;100303.06;5588907;31;33890;-68
2022/05/22 00:23:44;;;;;;;3.62;1.10;;;;;;;17.01;54.47;100301.47;5588801;31;34220;-68
2022/05/22 00:26:47;;;;;;;1.87;1.00;;;;;;;16.94;55.10;100306.84;5588525;31;34300;-68
2022/05/22 00:29:50;;;;;;;2.53;0.95;;;;;;;16.86;55.21;100299.03;5588569;31;34047;-67
2022/05/22 00:32:53;;;;;;;1.37;1.00;;;;;;;16.67;55.43;100294.53;5588693;31;33963;-67
2022/05/22 00:35:56;;;;;;;1.00;0.90;;;;;;;16.65;55.65;100286.75;5588987;31;33896;-68
2022/05/22 00:38:58;;;;;;;1.85;1.00;;;;;;;16.55;56.14;100296.19;5589095;31;33970;-68
2022/05/22 00:42:01;;;;;;;2.75;0.93;;;;;;;16.59;56.37;100295.59;5587844;31;34281;-67
2022/05/22 00:45:05;;;;;;;1.23;1.05;;;;;;;16.50;56.43;100292.28;5587629;31;32469;-68
2022/05/22 00:48:08;;;;;;;1.58;0.95;;;;;;;16.46;56.84;100295.56;5588425;31;35259;-67
2022/05/22 00:51:17;;;;;;;1.33;0.98;;;;;;;16.37;57.61;100296.81;5588326;31;34633;-66
2022/05/22 00:54:25;;;;;;;1.40;1.10;;;;;;;16.31;57.53;100300.34;5587480;31;34246;-68
2022/05/22 00:57:35;;;;;;;1.83;0.98;;;;;;;16.33;57.55;100293.75;5588559;31;35250;-67
2022/05/22 01:00:39;;;;;;;1.42;1.05;;;;;;;16.21;57.64;100300.75;5588580;31;33983;-66
2022/05/22 01:03:41;;;;;;;1.70;0.85;;;;;;;16.20;57.93;100299.09;5588224;31;34626;-66
2022/05/22 01:06:45;;;;;;;3.22;1.05;;;;;;;16.08;58.24;100290.03;5588014;31;34208;-67
2022/05/22 01:09:49;;;;;;;2.10;1.20;;;;;;;16.05;58.38;100293.97;5574264;31;33194;-67
2022/05/22 01:12:52;;;;;;;1.70;1.00;;;;;;;16.05;58.65;100287.78;5588005;31;34684;-67
2022/05/22 01:15:55;;;;;;;1.67;0.95;;;;;;;16.02;58.34;100290.88;5587990;31;33949;-66
2022/05/22 01:18:58;;;;;;;1.33;0.98;;;;;;;15.98;58.37;100278.91;5587941;31;35101;-67
2022/05/22 01:22:12;;;;;;;2.00;1.00;;;;;;;16.03;58.33;100282.62;5587876;31;34719;-67
2022/05/22 01:25:16;;;;;;;2.35;1.23;;;;;;;16.06;58.34;100281.41;5587781;31;34069;-67
2022/05/22 01:28:20;;;;;;;2.28;1.08;;;;;;;15.99;58.17;100277.87;5586466;31;33535;-65
2022/05/22 01:31:23;;;;;;;3.87;1.45;;;;;;;16.02;58.04;100283.66;5587878;31;33959;-66
2022/05/22 01:34:25;;;;;;;1.30;0.93;;;;;;;15.93;58.60;100279.53;5587998;31;35151;-67
2022/05/22 01:37:30;;;;;;;1.27;1.05;;;;;;;15.93;58.51;100282.19;5587933;31;33946;-66
2022/05/22 01:40:34;;;;;;;1.58;1.10;;;;;;;15.86;58.93;100275.22;5590804;31;35133;-67
2022/05/22 01:43:37;;;;;;;1.62;0.93;;;;;;;15.81;59.15;100275.81;5589751;31;33630;-67
2022/05/22 01:46:43;;;;;;;3.22;1.25;;;;;;;15.81;59.17;100275.00;5589702;31;33150;-67
2022/05/22 01:49:46;;;;;;;1.40;1.08;;;;;;;15.77;59.48;100287.13;5589662;31;34348;-66
2022/05/22 01:52:49;;;;;;;3.17;1.20;;;;;;;15.72;59.45;100271.69;5590429;31;35275;-65
2022/05/22 01:55:52;;;;;;;2.28;1.27;;;;;;;15.78;59.65;100278.09;5590546;31;34235;-67
2022/05/22 01:58:55;;;;;;;1.15;1.00;;;;;;;15.62;60.37;100276.62;5590353;31;34689;-66
2022/05/22 02:02:01;;;;;;;1.52;1.20;;;;;;;15.65;60.29;100276.19;5590787;31;33869;-65
2022/05/22 02:05:06;;;;;;;1.73;1.10;;;;;;;15.56;60.68;100274.75;5589830;31;32429;-66
2022/05/22 02:08:19;;;;;;;1.77;1.00;;;;;;;15.47;61.32;100274.09;5590183;31;33970;-65
2022/05/22 02:11:22;;;;;;;2.12;1.20;;;;;;;15.41;61.49;100269.53;5590503;31;33926;-67
2022/05/22 02:14:27;;;;;;;2.10;1.30;;;;;;;15.35;62.08;100278.34;5590166;31;35023;-66
2022/05/22 02:17:32;;;;;;;6.47;1.98;;;;;;;15.35;62.13;100281.03;5590519;31;34337;-67
2022/05/22 02:20:35;;;;;;;2.42;1.30;;;;;;;15.23;65.93;100283.47;5590100;31;33987;-67
2022/05/22 02:23:38;;;;;;;3.05;1.20;;;;;;;15.13;63.97;100277.69;5589075;31;35005;-66
2022/05/22 02:26:41;;;;;;;1.90;1.23;;;;;;;15.10;64.06;100275.38;5589835;31;34113;-66
2022/05/22 02:29:47;;;;;;;3.53;1.62;;;;;;;15.10;63.63;100271.91;5584597;31;138372;-67
2022/05/22 02:32:49;;;;;;;2.80;1.23;;;;;;;15.13;63.90;100276.84;5589388;31;32678;-66
2022/05/22 02:35:52;;;;;;;4.78;1.40;;;;;;;15.18;63.55;100271.72;5589443;31;34517;-66
2022/05/22 02:38:55;;;;;;;2.55;1.25;;;;;;;15.27;63.32;100281.22;5589958;31;34393;-66
2022/05/22 02:42:03;;;;;;;1.67;1.20;;;;;;;15.16;63.53;100271.09;5589157;31;34678;-68
2022/05/22 02:45:07;;;;;;;1.37;1.20;;;;;;;15.12;64.23;100278.69;5590210;31;33986;-65
2022/05/22 02:48:11;;;;;;;1.37;1.10;;;;;;;15.05;64.58;100275.19;5589813;31;33945;-66
2022/05/22 02:51:19;;;;;;;1.73;1.48;;;;;;;15.02;64.86;100274.75;5589839;31;34549;-66
2022/05/22 02:54:24;;;;;;;1.58;1.20;;;;;;;14.95;65.51;100276.56;5589766;31;33919;-67
2022/05/22 02:57:27;;;;;;;1.40;1.20;;;;;;;14.93;65.78;100274.09;5588965;31;34196;-67
2022/05/22 03:00:31;;;;;;;2.30;1.37;;;;;;;14.90;66.25;100277.16;5575987;31;33376;-66
2022/05/22 03:03:34;;;;;;;3.72;1.60;;;;;;;14.82;66.52;100277.31;5589782;31;34532;-66
2022/05/22 03:06:38;;;;;;;1.87;1.45;;;;;;;14.80;66.77;100274.03;5589771;31;34453;-66
2022/05/22 03:09:42;;;;;;;1.80;1.60;;;;;;;14.84;66.71;100266.44;5589862;31;33974;-64
2022/05/22 03:12:45;;;;;;;2.12;1.45;;;;;;;14.62;67.26;100279.06;5590058;31;34612;-66
2022/05/22 03:15:51;;;;;;;2.97;1.50;;;;;;;14.61;67.44;100270.25;5589022;31;32444;-65
2022/05/22 03:19:03;;;;;;;;;;;;;;;14.65;67.07;100276.81;5589194;31;33880;-65
2022/05/22 03:22:07;;;;;;;4.03;1.30;;;;;;;14.68;66.35;100284.44;5590066;31;34892;-65
2022/05/22 03:25:11;;;;;;;2.62;1.50;;;;;;;14.71;66.19;100286.72;5588782;31;33942;-69
2022/05/22 03:28:17;;;;;;;3.10;1.42;;;;;;;14.69;66.32;100287.94;5589318;31;34521;-67
2022/05/22 03:31:20;;;;;;;1.70;1.33;;;;;;;14.67;66.14;100282.78;5589371;31;34005;-67
2022/05/22 03:34:24;;;;;;;1.48;1.20;;;;;;;14.69;66.19;100283.41;5589462;31;33943;-67
2022/05/22 03:37:27;;;;;;;2.50;1.23;;;;;;;14.66;65.67;100281.16;5589524;31;34381;-66
2022/05/22 03:40:31;;;;;;;3.53;1.77;;;;;;;14.77;64.95;100277.09;5589435;31;34801;-66
2022/05/22 03:43:34;;;;;;;3.55;1.40;;;;;;;14.83;64.86;100276.31;5589246;31;34667;-68
2022/05/22 03:46:37;;;;;;;3.08;1.30;;;;;;;14.99;64.55;100281.31;5589455;31;33914;-68
2022/05/22 03:49:40;;;;;;;2.10;1.30;;;;;;;15.03;63.31;100287.09;5589252;31;34323;-67
2022/05/22 03:52:46;;;;;;;1.52;1.12;;;;;;;15.02;62.73;100293.44;5575659;31;32759;-65
2022/05/22 03:55:52;;;;;;;4.80;1.27;;;;;;;15.11;61.90;100287.72;5589569;31;34185;-66
2022/05/22 03:58:57;;;;;;;1.90;1.17;;;;;;;15.09;61.34;100297.81;5589111;31;35353;-67
2022/05/22 04:02:00;;;;;;;1.83;1.20;;;;;;;15.11;61.50;100292.25;5587547;31;32683;-68
2022/05/22 04:05:07;;;;;;;3.33;1.27;;;;;;;15.10;62.02;100299.44;5588390;31;34241;-66
2022/05/22 04:08:09;;;;;;;2.45;1.40;;;;;;;15.04;61.95;100299.44;5588955;31;34415;-65
2022/05/22 04:11:16;;;;;;;1.73;1.25;;;;;;;15.11;62.02;100301.09;5588588;31;32338;-67
2022/05/22 04:14:19;;;;;;;2.78;1.30;;;;;;;15.14;61.90;100310.56;5588945;31;34248;-68
2022/05/22 04:17:24;;;;;;;3.42;1.50;;;;;;;15.16;62.30;100308.50;5587967;31;34430;-67
2022/05/22 04:20:28;;;;;;;2.67;1.60;;;;;;;15.21;61.54;100301.53;5587808;31;32436;-66
2022/05/22 04:26:55;;;;;;;3.60;1.65;;;;;;;15.38;60.59;100311.91;5588696;31;33967;-68
2022/05/22 04:30:04;;;;;;;2.10;1.20;;;;;;;15.34;60.47;100306.13;5588452;31;34082;-67
2022/05/22 04:33:08;;;;;;;7.87;1.30;;;;;;;15.43;60.02;100296.91;5587807;31;32319;-66
2022/05/22 04:36:12;;;;;;;1.37;1.10;;;;;;;15.44;59.68;100308.44;5588925;31;34210;-66
2022/05/22 04:39:15;;;;;;;1.98;1.20;;;;;;;15.36;60.08;100312.09;5588885;31;34594;-68
2022/05/22 04:42:26;;;;;;;4.72;1.10;;;;;;;15.41;59.89;100314.97;5575639;31;34050;-68
2022/05/22 04:45:29;;;;;;;1.40;1.10;;;;;;;15.56;59.53;100310.34;5588467;31;33869;-67
2022/05/22 04:48:32;;;;;;;4.47;1.20;;;;;;;15.81;58.64;100307.94;5588228;31;34628;-68
2022/05/22 04:51:35;;;;;;;2.62;1.23;;;;;;;15.77;58.39;100312.03;5588562;31;33982;-68
2022/05/22 04:54:38;;;;;;;1.55;0.90;;;;;;;16.01;57.86;100313.31;5588209;31;34671;-67
2022/05/22 04:57:41;;;;;;;4.15;1.15;;;;;;;16.02;57.45;100304.25;5587369;31;32331;-68
2022/05/22 05:00:44;;;;;;;1.55;1.10;;;;;;;16.26;56.52;100310.84;5588074;31;34121;-67
2022/05/22 05:03:47;;;;;;;2.08;1.23;;;;;;;16.62;56.09;100316.59;5588249;31;34531;-69
2022/05/22 05:06:52;;;;;;;2.22;0.90;;;;;;;16.48;56.13;100305.06;5587875;31;33992;-68
2022/05/22 05:10:02;;;;;;;1.33;0.88;;;;;;;16.81;55.15;100309.56;5587841;31;34297;-66
2022/05/22 05:13:13;;;;;;;1.35;0.90;;;;;;;16.85;55.63;100308.91;5587928;31;33656;-67
2022/05/22 05:16:16;;;;;;;2.58;1.00;;;;;;;16.30;56.81;100309.41;5590569;31;34797;-66
2022/05/22 05:19:19;;;;;;;1.08;0.90;;;;;;;16.67;55.69;100311.44;5589928;31;33840;-67
2022/05/22 05:22:22;;;;;;;1.15;0.80;;;;;;;16.42;56.71;100313.09;5590633;31;34372;-66
2022/05/22 05:25:29;;;;;;;2.45;1.10;;;;;;;16.30;57.56;100322.78;5590514;31;34547;-67
2022/05/22 05:28:32;;;;;;;1.00;0.90;;;;;;;16.41;57.56;100324.84;5590374;31;34641;-68
2022/05/22 05:31:35;;;;;;;1.42;0.98;;;;;;;16.49;56.73;100314.75;5590216;31;34313;-69
2022/05/22 05:34:42;;;;;;;3.62;1.10;;;;;;;16.65;56.64;100318.87;5589534;31;34566;-67
2022/05/22 05:37:46;;;;;;;1.85;0.90;;;;;;;16.97;55.80;100325.19;5589636;31;34638;-68
2022/05/22 05:40:49;;;;;;;2.28;1.10;;;;;;;17.18;55.48;100324.94;5589540;31;33004;-66
2022/05/22 05:43:53;;;;;;;1.50;0.90;;;;;;;17.33;53.74;100316.62;5589566;31;32434;-67
2022/05/22 05:46:55;;;;;;;3.95;0.90;;;;;;;17.31;54.08;100327.53;5589529;31;33903;-67
2022/05/22 05:49:59;;;;;;;1.17;0.77;;;;;;;17.19;54.00;100331.91;5589566;31;33973;-67
2022/05/22 05:53:02;;;;;;;3.37;0.90;;;;;;;17.15;54.16;100333.38;5590570;31;34738;-65
2022/05/22 05:56:08;;;;;;;4.50;1.27;;;;;;;17.50;53.85;100338.37;5590231;31;35215;-67
2022/05/22 05:59:27;;;;;;;1.80;1.08;;;;;;;17.43;53.13;100327.69;5589486;31;32538;-68
2022/05/22 06:02:31;;;;;;;1.48;0.82;;;;;;;17.60;53.46;100333.41;5590001;31;35467;-68
2022/05/22 06:05:34;;;;;;;1.23;0.75;;;;;;;17.75;52.05;100334.78;5590168;31;34320;-66
2022/05/22 06:08:42;;;;;;;2.97;1.00;;;;;;;17.77;53.05;100334.56;5589706;31;33877;-66
2022/05/22 06:11:48;;;;;;;2.45;1.02;;;;;;;17.66;52.14;100336.09;5590385;31;33888;-68
2022/05/22 06:14:51;;;;;;;1.42;0.70;;;;;;;17.66;52.59;100328.03;5590135;31;34661;-68
2022/05/22 06:17:56;;;;;;;1.37;0.90;;;;;;;18.03;50.74;100328.19;5589389;31;33299;-66
2022/05/22 06:21:06;;;;;;;1.75;0.70;;;;;;;17.99;52.57;100324.31;5588765;31;32588;-65
2022/05/22 06:24:09;;;;;;;1.37;0.80;;;;;;;18.14;51.23;100319.44;5589655;31;33994;-68
2022/05/22 06:27:16;;;;;;;3.53;1.20;;;;;;;18.43;50.57;100321.47;5589035;31;32355;-67
2022/05/22 06:30:21;;;;;;;1.45;1.02;;;;;;;18.44;50.42;100320.44;5589733;31;33747;-67
2022/05/22 06:33:24;;;;;;;2.35;0.98;;;;;;;18.14;50.88;100327.50;5589283;31;32577;-68
2022/05/22 06:36:28;;;;;;;1.02;0.80;;;;;;;17.61;52.77;100325.16;5590061;31;34386;-67
2022/05/22 06:39:49;;;;;;;2.20;1.10;;;;;;;17.71;52.23;100330.91;5589309;31;34696;-68
2022/05/22 06:42:52;;;;;;;2.10;1.10;;;;;;;17.72;52.19;100334.38;5589767;31;33982;-68
2022/05/22 06:46:01;;;;;;;1.45;0.98;;;;;;;17.80;52.20;100326.91;5589881;31;34058;-66
2022/05/22 06:49:08;;;;;;;2.87;1.10;;;;;;;18.19;49.54;100339.25;5589641;31;34508;-66
2022/05/22 06:52:11;;;;;;;1.40;1.00;;;;;;;18.23;50.11;100328.87;5590107;31;34646;-66
2022/05/22 06:55:15;;;;;;;2.60;1.15;;;;;;;18.51;49.91;100333.78;5576059;31;32652;-67
2022/05/22 06:58:18;;;;;;;2.05;0.90;;;;;;;18.75;49.52;100326.78;5589931;31;33993;-66
2022/05/22 07:01:24;;;;;;;1.42;1.00;;;;;;;18.71;48.62;100331.78;5590135;31;34066;-68
2022/05/22 07:04:27;;;;;;;1.98;0.95;;;;;;;19.39;47.47;100323.56;5589912;31;34537;-68
2022/05/22 07:07:31;;;;;;;2.53;0.95;;;;;;;19.25;47.61;100312.16;5590093;31;34448;-66
2022/05/22 07:13:58;;;;;;;1.00;0.70;;;;;;;19.50;45.55;100314.78;5589505;31;34739;-68
2022/05/22 07:17:02;;;;;;;2.08;1.00;;;;;;;18.94;47.56;100310.44;5589595;31;34293;-67
2022/05/22 07:20:06;;;;;;;2.05;0.98;;;;;;;19.23;46.79;100308.84;5589280;31;33914;-68
2022/05/22 07:23:10;;;;;;;2.58;0.98;;;;;;;19.43;46.36;100301.37;5588171;31;32469;-67
2022/05/22 07:26:15;;;;;;;1.15;0.70;;;;;;;20.24;44.57;100300.78;5589294;31;34285;-68
2022/05/22 07:29:20;;;;;;;1.48;1.02;;;;;;;21.51;42.22;100290.94;5589219;31;34020;-68
2022/05/22 07:32:25;;;;;;;3.10;1.15;;;;;;;20.81;42.63;100293.81;5588204;31;32668;-68
2022/05/22 07:35:28;;;;;;;1.42;0.80;;;;;;;22.47;40.82;100289.06;5587684;31;34151;-67
2022/05/22 07:38:31;;;;;;;1.08;0.60;;;;;;;21.92;39.80;100288.97;5589368;31;34086;-68
2022/05/22 07:41:35;;;;;;;1.67;0.80;;;;;;;22.45;39.44;100291.22;5588599;31;33632;-68
2022/05/22 07:44:40;;;;;;;1.48;0.52;;;;;;;22.31;38.34;100298.03;5588135;31;33314;-66
2022/05/22 07:47:42;;;;;;;2.12;0.60;;;;;;;23.02;36.35;100283.63;5588489;31;33059;-67
2022/05/22 07:50:45;;;;;;;2.05;0.70;;;;;;;23.22;35.97;100294.72;5588994;31;33932;-68
2022/05/22 07:53:50;;;;;;;2.60;0.80;;;;;;;23.13;36.26;100282.69;5588827;31;34508;-69
2022/05/22 07:56:54;;;;;;;1.80;0.93;;;;;;;22.96;37.25;100276.53;5589158;31;33893;-67
2022/05/22 07:59:57;;;;;;;1.08;0.60;;;;;;;22.76;37.13;100284.37;5588364;31;33771;-67
2022/05/22 08:03:09;;;;;;;3.65;0.82;;;;;;;23.83;35.07;100279.94;5588172;31;32832;-67
2022/05/22 08:06:18;;;;;;;1.17;0.70;;;;;;;23.67;33.50;100278.16;5588764;31;34148;-67
2022/05/22 08:09:20;;;;;;;1.35;0.70;;;;;;;22.96;35.85;100276.53;5575201;31;32958;-67
2022/05/22 08:12:24;;;;;;;1.80;0.60;;;;;;;23.76;34.53;100276.66;5588138;31;32478;-68
2022/05/22 08:15:30;;;;;;;1.67;0.70;;;;;;;24.69;33.50;100275.19;5587879;31;34102;-67
2022/05/22 08:18:33;;;;;;;1.15;0.60;;;;;;;23.08;35.28;100274.53;5587970;31;33002;-67
2022/05/22 08:21:37;;;;;;;3.85;0.80;;;;;;;23.38;35.31;100271.34;5588208;31;34219;-68
2022/05/22 08:24:43;;;;;;;1.73;0.80;;;;;;;24.43;35.71;100272.59;5587681;31;32484;-69
2022/05/22 08:27:45;;;;;;;3.17;1.00;;;;;;;24.49;33.83;100250.69;5588602;31;34463;-68
2022/05/22 08:30:48;;;;;;;4.50;0.70;;;;;;;23.70;34.68;100258.72;5587581;31;32401;-67
2022/05/22 08:33:51;;;;;;;1.95;0.80;;;;;;;24.43;32.68;100265.28;5587492;31;34384;-68
2022/05/22 08:36:54;;;;;;;1.42;0.68;;;;;;;25.06;31.87;100256.12;5587496;31;32404;-68
2022/05/22 08:39:56;;;;;;;2.25;0.80;;;;;;;25.18;32.19;100247.75;5574633;31;32450;-68
2022/05/22 08:43:10;;;;;;;2.22;0.70;;;;;;;24.32;33.15;100249.19;5588207;31;34120;-68
2022/05/22 08:46:20;;;;;;;1.08;0.70;;;;;;;25.69;31.10;100251.44;5588245;31;33987;-67
2022/05/22 08:49:39;;;;;;;2.28;0.65;;;;;;;26.55;30.54;100248.66;5590020;31;33487;-67
2022/05/22 08:53:01;;;;;;;2.27;0.80;;;;;;;25.14;31.92;100237.69;5590196;31;32540;-68
2022/05/22 08:59:39;;;;;;;1.25;0.70;;;;;;;25.38;32.28;100236.94;5590717;31;35133;-67
2022/05/22 09:02:54;;;;;;;3.35;0.68;;;;;;;25.46;30.47;100239.12;5590346;31;34576;-68
2022/05/22 09:06:04;;;;;;;2.90;0.65;;;;;;;25.30;31.17;100229.34;5589249;31;33602;-67
2022/05/22 09:09:06;;;;;;;1.37;0.70;;;;;;;26.81;29.30;100239.34;5589621;31;33108;-68
2022/05/22 09:12:43;;;;;;;2.08;0.70;;;;;;;24.92;32.51;100225.16;5590379;31;34304;-69
2022/05/22 09:15:52;;;;;;;2.25;0.65;;;;;;;26.28;29.89;100229.97;5589361;31;33281;-69
2022/05/22 09:19:10;;;;;;;1.87;0.80;;;;;;;25.29;30.91;100218.72;5589477;31;32400;-68
2022/05/22 09:22:28;;;;;;;4.53;1.00;;;;;;;24.92;31.52;100224.31;5590558;31;34011;-68
2022/05/22 09:26:12;;;;;;;1.10;0.70;;;;;;;25.55;30.61;100209.56;5577041;31;33841;-69
2022/05/22 09:29:43;;;;;;;3.00;0.62;;;;;;;26.58;29.65;100196.41;5587122;31;32433;-67
2022/05/22 09:33:04;;;;;;;2.92;0.80;;;;;;;26.23;30.07;100202.78;5576311;31;34793;-68
2022/05/22 09:36:26;;;;;;;1.37;0.68;;;;;;;25.24;31.28;100203.25;5590439;31;34228;-68
2022/05/22 09:40:06;;;;;;;0.82;0.70;;;;;;;26.60;29.38;100202.41;5589701;31;34319;-68
2022/05/22 09:43:54;;;;;;;0.82;0.55;;;;;;;27.08;28.67;100197.31;5589471;31;32932;-68
2022/05/22 09:47:15;;;;;;;1.10;0.70;;;;;;;26.18;29.13;100194.59;5589993;31;34309;-69
2022/05/22 09:50:35;;;;;;;1.80;0.70;;;;;;;27.45;27.32;100197.59;5590222;31;33903;-68
2022/05/22 09:53:40;;;;;;;2.75;0.80;;;;;;;26.71;27.96;100182.22;5589600;31;32809;-68
2022/05/22 09:57:13;;;;;;;1.48;0.60;;;;;;;27.17;27.47;100184.72;5589242;31;32362;-68
2022/05/22 10:00:19;;;;;;;1.48;0.70;;;;;;;25.50;29.19;100188.63;5588598;31;33645;-70
2022/05/22 10:03:40;;;;;;;1.42;0.73;;;;;;;27.44;26.54;100192.47;5589024;31;32477;-69
2022/05/22 10:07:17;;;;;;;1.10;0.60;;;;;;;27.20;26.92;100195.06;5590150;31;34283;-69
2022/05/22 10:10:50;;;;;;;3.33;0.85;;;;;;;27.76;26.54;100190.06;5586106;31;33313;-67
2022/05/22 10:14:14;;;;;;;3.42;0.60;;;;;;;26.76;26.47;100187.66;5589513;31;33959;-67
2022/05/22 10:17:26;;;;;;;4.28;0.75;;;;;;;26.02;27.91;100181.28;5589680;31;34327;-68
2022/05/22 10:21:06;;;;;;;1.70;0.68;;;;;;;27.93;25.69;100182.25;5589229;31;32780;-68
2022/05/22 10:24:25;;;;;;;1.70;0.68;;;;;;;27.93;25.44;100181.47;5589833;31;34612;-67
2022/05/22 10:27:28;;;;;;;;;;;;;;;28.03;25.65;100168.53;5576550;31;33592;-68
2022/05/22 10:30:41;;;;;;;4.37;0.80;;;;;;;27.04;26.55;100175.28;5588739;31;34974;-68
2022/05/22 10:33:58;;;;;;;2.90;0.88;;;;;;;28.48;25.17;100178.16;5589265;31;33245;-68
2022/05/22 10:37:12;;;;;;;3.72;0.98;;;;;;;26.85;26.80;100165.28;5589674;31;35165;-67
2022/05/22 10:40:21;;;;;;;1.83;0.80;;;;;;;28.41;24.91;100155.87;5588997;31;32669;-69
2022/05/22 10:43:23;;;;;;;;;;;;;;;28.56;25.62;100146.69;5589555;31;33971;-68
2022/05/22 10:46:26;;;;;;;1.33;0.70;;;;;;;27.73;25.89;100144.28;5589684;31;34368;-69
2022/05/22 10:49:42;;;;;;;2.22;0.70;;;;;;;26.87;26.58;100144.09;5589652;31;34170;-69
2022/05/22 10:52:46;;;;;;;2.78;1.23;;;;;;;27.07;27.38;100141.22;5589764;31;34049;-67
2022/05/22 10:55:52;;;;;;;2.40;0.70;;;;;;;29.47;24.18;100150.91;5589161;31;32586;-68
2022/05/22 10:58:59;;;;;;;2.28;0.70;;;;;;;30.67;22.47;100148.97;5588655;31;33738;-67
2022/05/22 11:02:04;;;;;;;5.40;0.65;;;;;;;28.04;25.09;100159.25;5575809;31;32747;-68
2022/05/22 11:05:17;;;;;;;2.67;0.60;;;;;;;29.58;23.87;100157.03;5588834;31;32792;-69
2022/05/22 11:08:26;;;;;;;2.37;0.60;;;;;;;29.57;23.68;100163.59;5588858;31;33407;-67
2022/05/22 11:11:33;;;;;;;1.52;0.60;;;;;;;28.52;24.53;100154.63;5588292;31;34658;-68
2022/05/22 11:14:37;;;;;;;2.17;0.80;;;;;;;30.39;22.75;100159.09;5575885;31;32369;-68
2022/05/22 11:17:40;;;;;;;2.35;0.70;;;;;;;29.87;23.26;100151.31;5588759;31;32552;-68
2022/05/22 11:20:48;;;;;;;3.12;0.82;;;;;;;28.25;24.88;100151.69;5588242;31;32843;-67
2022/05/22 11:24:18;;;;;;;1.48;0.68;;;;;;;29.53;23.84;100141.50;5588743;31;33828;-68
2022/05/22 11:27:40;;;;;;;1.67;0.55;;;;;;;30.74;22.59;100146.66;5588427;31;33120;-68
2022/05/22 11:31:04;;;;;;;3.60;0.65;;;;;;;28.88;24.17;100122.25;5588375;31;34139;-69
2022/05/22 11:34:25;;;;;;;2.15;0.62;;;;;;;27.36;25.35;100133.94;5588250;31;32311;-67
2022/05/22 11:37:53;;;;;;;2.05;0.95;;;;;;;28.87;24.47;100128.00;5588382;31;32658;-67
2022/05/22 11:41:15;;;;;;;1.42;0.45;;;;;;;27.39;25.89;100127.09;5588356;31;32674;-67
2022/05/22 11:45:13;;;;;;;3.95;0.70;;;;;;;28.52;24.52;100112.88;5589585;31;34348;-67
2022/05/22 11:48:32;;;;;;;2.12;0.60;;;;;;;29.17;23.76;100119.38;5586378;31;34506;-67
2022/05/22 11:51:49;;;;;;;2.08;0.68;;;;;;;27.41;25.11;100114.81;5588582;31;33731;-67
2022/05/22 11:55:09;;;;;;;1.75;0.60;;;;;;;29.24;23.37;100110.81;5589182;31;34089;-66
2022/05/22 11:58:31;;;;;;;1.92;0.70;;;;;;;30.18;22.08;100108.63;5575444;31;32844;-67
2022/05/22 12:01:40;;;;;;;1.80;0.65;;;;;;;30.19;22.25;100111.06;5588287;31;33515;-67
2022/05/22 12:04:58;;;;;;;1.33;0.62;;;;;;;29.15;22.21;100105.19;5588945;31;34499;-68
2022/05/22 12:08:40;;;;;;;1.30;0.52;;;;;;;31.87;20.49;100095.13;5588394;31;32564;-68
2022/05/22 12:12:02;;;;;;;1.20;0.55;;;;;;;31.13;20.99;100087.72;5588056;31;32589;-68
2022/05/22 12:15:20;;;;;;;1.65;0.50;;;;;;;30.26;22.39;100077.00;5587870;31;33761;-69
2022/05/22 12:18:45;;;;;;;2.00;0.60;;;;;;;31.60;20.53;100073.38;5588856;31;34555;-70
2022/05/22 12:22:13;;;;;;;2.33;0.50;;;;;;;33.83;18.92;100075.59;5586737;31;33151;-70
2022/05/22 12:25:23;;;;;;;1.62;0.70;;;;;;;32.45;19.65;100074.81;5587532;31;33112;-69
2022/05/22 12:28:48;;;;;;;1.52;0.60;;;;;;;30.18;22.31;100078.53;5588062;31;32951;-69
2022/05/22 12:31:57;;;;;;;4.18;0.68;;;;;;;28.36;24.62;100081.47;5587139;31;32758;-68
2022/05/22 12:35:00;;;;;;;1.17;0.60;;;;;;;32.87;19.85;100076.06;5589092;31;34688;-70
2022/05/22 12:38:06;;;;;;;2.92;0.70;;;;;;;33.14;19.84;100066.66;5588638;31;34683;-68
2022/05/22 12:41:14;;;;;;;1.02;0.60;;;;;;;33.05;19.34;100074.91;5587282;31;34026;-67
2022/05/22 12:44:17;;;;;;;1.12;0.40;;;;;;;29.36;22.76;100076.47;5588544;31;33916;-66
2022/05/22 12:47:20;;;;;;;2.20;0.50;;;;;;;30.91;21.22;100074.75;5587596;31;32965;-70
2022/05/22 12:50:43;;;;;;;1.12;0.57;;;;;;;31.25;21.53;100057.78;5587751;31;32593;-67
2022/05/22 12:53:51;;;;;;;1.77;0.60;;;;;;;31.50;21.19;100077.16;5574143;31;32618;-69
2022/05/22 12:57:14;;;;;;;1.63;0.80;;;;;;;30.73;21.79;100062.03;5587509;31;33980;-69
2022/05/22 13:00:30;;;;;;;1.08;0.70;;;;;;;28.35;24.01;100058.81;5587280;31;32811;-66
2022/05/22 13:03:40;;;;;;;1.27;0.70;;;;;;;26.00;27.87;100045.62;5574577;31;34092;-66
2022/05/22 13:07:05;;;;;;;1.67;0.60;;;;;;;29.27;24.04;100047.34;5587202;31;32537;-68
2022/05/22 13:10:39;;;;;;;1.77;0.60;;;;;;;30.70;21.79;100041.53;5588390;31;33974;-69
2022/05/22 13:13:49;;;;;;;1.62;0.60;;;;;;;31.61;20.94;100044.00;5587295;31;32538;-67
2022/05/22 13:16:52;;;;;;;2.00;0.45;;;;;;;27.93;25.60;100045.91;5587857;31;34554;-66
2022/05/22 13:19:56;;;;;;;1.27;0.70;;;;;;;30.27;23.28;100043.03;5588215;31;34657;-68
2022/05/22 13:23:08;;;;;;;1.92;0.68;;;;;;;29.73;24.19;100045.44;5587805;31;34753;-68
2022/05/22 13:26:19;;;;;;;2.95;0.80;;;;;;;31.14;22.33;100038.06;5587117;31;33101;-68
2022/05/22 13:29:26;;;;;;;1.17;0.62;;;;;;;31.59;21.85;100025.12;5586672;31;34097;-68
2022/05/22 13:32:41;;;;;;;2.42;0.80;;;;;;;33.41;20.65;100030.53;5587349;31;34303;-70
2022/05/22 13:35:56;;;;;;;1.45;0.57;;;;;;;34.39;19.36;100018.47;5588879;31;33432;-68
2022/05/22 13:39:02;;;;;;;2.25;0.75;;;;;;;32.81;20.92;100014.13;5589815;31;33294;-70
2022/05/22 13:42:42;;;;;;;2.50;0.70;;;;;;;31.02;22.55;100011.22;5589614;31;34593;-69
2022/05/22 13:46:10;;;;;;;1.17;0.65;;;;;;;29.45;24.27;100004.72;5589370;31;33909;-70
2022/05/22 13:49:19;;;;;;;3.10;0.70;;;;;;;30.27;23.36;99989.09;5589714;31;33549;-68
2022/05/22 13:52:49;;;;;;;2.15;0.70;;;;;;;30.85;22.73;99993.81;5589225;31;33825;-69
2022/05/22 13:55:54;;;;;;;2.42;0.70;;;;;;;32.26;21.12;100005.66;5589200;31;33330;-68
2022/05/22 13:58:57;;;;;;;3.62;0.85;;;;;;;33.30;20.39;100001.81;5588758;31;32986;-68
2022/05/22 14:02:08;;;;;;;1.30;0.70;;;;;;;32.99;20.75;99998.44;5589402;31;33496;-67
2022/05/22 14:05:13;;;;;;;1.27;0.47;;;;;;;35.70;17.83;100004.75;5589931;31;34962;-68
2022/05/22 14:08:19;;;;;;;1.52;0.55;;;;;;;35.04;17.54;99986.66;5588992;31;34170;-67
2022/05/22 14:11:30;;;;;;;1.37;0.57;;;;;;;33.40;18.99;100000.63;5589948;31;34017;-68
2022/05/22 14:14:34;;;;;;;1.40;0.60;;;;;;;28.79;23.64;99992.97;5589914;31;34636;-68
2022/05/22 14:17:38;;;;;;;2.05;0.90;;;;;;;26.23;28.44;99992.56;5589996;31;33956;-67
2022/05/22 14:20:43;;;;;;;1.33;0.65;;;;;;;24.15;31.86;99992.66;5589589;31;34102;-67
2022/05/22 14:27:23;;;;;;;1.40;0.82;;;;;;;23.02;33.75;99994.13;5590115;31;35207;-67
2022/05/22 14:30:33;;;;;;;1.65;0.77;;;;;;;22.87;33.95;99992.13;5590133;31;34618;-67
2022/05/22 14:33:36;;;;;;;2.35;0.70;;;;;;;23.86;32.82;99990.62;5588904;31;33044;-67
2022/05/22 14:36:49;;;;;;;0.68;0.52;;;;;;;25.73;28.88;99979.97;5589387;31;34771;-68
2022/05/22 14:39:56;;;;;;;1.55;0.62;;;;;;;27.32;26.99;99985.78;5575775;31;32485;-67
2022/05/22 14:43:03;;;;;;;1.85;0.70;;;;;;;26.73;27.39;99967.75;5589054;31;33412;-68
2022/05/22 14:46:11;;;;;;;1.73;0.70;;;;;;;27.34;26.41;99972.69;5588922;31;33828;-67
2022/05/22 14:49:24;;;;;;;8.63;0.70;;;;;;;28.17;25.04;99966.03;5588908;31;32314;-69
2022/05/22 14:52:39;;;;;;;5.78;0.68;;;;;;;29.26;24.29;99980.97;5589489;31;34039;-67
2022/05/22 14:55:45;;;;;;;1.45;0.70;;;;;;;29.89;23.35;99966.69;5588726;31;34019;-67